Welcome to Des Moines Iowa Weather. I am an independent private personal weather station on the Northwest Side of Des Moines, Iowa. Just East of Windsor Heights and just West of Glendale . This site is also mobile friendly.

There are no active watches, warnings or advisories


Visit our other weather sites:

Historical Data

Weather Station Setup



Weather Underground History page Text

Daily Summary for January 13, 2018 Units:  Metric    English   Both
« Previous Day
Next Day »
Daily Weekly Monthly Yearly Custom
  High: Low: Average:
Temperature: -11.2 °C -16.4 °C -14 °C
Dew Point: -17.8 °C -21.7 °C -19.4 °C
Humidity: 74 % 47 % 65 %
Wind Speed: 9.7 km/h 0 km/h 1.8 km/h
Wind Gust: 17.7 km/h - -
Wind:- - NNE
Pressure: 1043.6 hPa 1038.5 hPa -
Precipitation: 0 mm    
Historical Graphs
 
 
Tabular Data for January 13, 2018
Time Temperature Dew Point Pressure Wind Wind Speed Wind Gust Humidity Rainfall Rate (Hourly)
00:07 -14.2 °C -18.3 °C 1039.8 hPa North 1.6 km/h 16.1 km/h 70 % 0 mm
00:22 -14.2 °C -18.3 °C 1039.8 hPa North 4.8 km/h 14.5 km/h 71 % 0 mm
00:38 -14.1 °C -18.3 °C 1039.8 hPa Calm   14.5 km/h 71 % 0 mm
00:53 -14.1 °C -18.3 °C 1039.8 hPa North 4.8 km/h 16.1 km/h 72 % 0 mm
01:08 -14.1 °C -18.3 °C 1039.8 hPa North 6.4 km/h 12.9 km/h 72 % 0 mm
01:23 -14.1 °C -18.3 °C 1039.8 hPa North 8 km/h 12.9 km/h 72 % 0 mm
01:38 -14 °C -18.3 °C 1039.8 hPa North 3.2 km/h 16.1 km/h 72 % 0 mm
01:53 -14 °C -18.3 °C 1040.2 hPa NE 3.2 km/h 16.1 km/h 72 % 0 mm
02:08 -14 °C -18.3 °C 1040.5 hPa North 1.6 km/h 14.5 km/h 72 % 0 mm
02:23 -14.1 °C -17.8 °C 1040.5 hPa Calm   17.7 km/h 73 % 0 mm
02:38 -14.1 °C -17.8 °C 1040.5 hPa NNE 1.6 km/h 9.7 km/h 73 % 0 mm
02:53 -14.2 °C -17.8 °C 1040.9 hPa North 6.4 km/h 8 km/h 73 % 0 mm
03:08 -14.2 °C -18.3 °C 1040.9 hPa Calm   8 km/h 73 % 0 mm
03:23 -14.3 °C -18.3 °C 1040.9 hPa North 8 km/h 11.3 km/h 73 % 0 mm
03:38 -14.3 °C -18.3 °C 1040.9 hPa North 3.2 km/h 12.9 km/h 73 % 0 mm
03:53 -14.4 °C -18.3 °C 1040.9 hPa North 3.2 km/h 12.9 km/h 73 % 0 mm
04:09 -14.4 °C -18.3 °C 1040.9 hPa NE 3.2 km/h 11.3 km/h 73 % 0 mm
04:24 -14.5 °C -18.3 °C 1041.2 hPa NE 1.6 km/h 6.4 km/h 74 % 0 mm
04:39 -14.6 °C -18.3 °C 1041.2 hPa North 1.6 km/h 8 km/h 74 % 0 mm
04:54 -14.6 °C -18.3 °C 1041.2 hPa North 4.8 km/h 9.7 km/h 74 % 0 mm
05:09 -14.7 °C -18.3 °C 1041.2 hPa North 4.8 km/h 8 km/h 73 % 0 mm
05:24 -14.7 °C -18.3 °C 1041.5 hPa NE 9.7 km/h 9.7 km/h 73 % 0 mm
05:39 -14.9 °C -18.9 °C 1041.9 hPa North 1.6 km/h 8 km/h 71 % 0 mm
05:54 -15.1 °C -18.9 °C 1041.9 hPa North 4.8 km/h 17.7 km/h 72 % 0 mm
06:09 -15.4 °C -19.4 °C 1041.9 hPa North 4.8 km/h 8 km/h 71 % 0 mm
06:24 -15.6 °C -19.4 °C 1042.2 hPa North 1.6 km/h 12.9 km/h 72 % 0 mm
06:39 -15.7 °C -19.4 °C 1042.2 hPa North 3.2 km/h 8 km/h 72 % 0 mm
07:09 -15.9 °C -20 °C 1042.5 hPa North 4.8 km/h 12.9 km/h 72 % 0 mm
07:24 -16.2 °C -20 °C 1042.2 hPa Calm   6.4 km/h 72 % 0 mm
07:40 -16.3 °C -20 °C 1042.5 hPa North 1.6 km/h 8 km/h 73 % 0 mm
07:55 -16.3 °C -20 °C 1042.5 hPa North 1.6 km/h 9.7 km/h 73 % 0 mm
08:10 -16.3 °C -20 °C 1042.5 hPa Calm   9.7 km/h 73 % 0 mm
08:25 -16.3 °C -20 °C 1042.9 hPa North 1.6 km/h 8 km/h 73 % 0 mm
08:40 -16.4 °C -20.6 °C 1042.9 hPa North 1.6 km/h 16.1 km/h 72 % 0 mm
08:55 -16.4 °C -20.6 °C 1042.9 hPa North 4.8 km/h 9.7 km/h 72 % 0 mm
09:10 -16.4 °C -20.6 °C 1042.9 hPa Calm   8 km/h 72 % 0 mm
09:40 -16.1 °C -20 °C 1043.2 hPa North 4.8 km/h 6.4 km/h 71 % 0 mm
09:55 -15.8 °C -20.6 °C 1043.2 hPa North 1.6 km/h 8 km/h 69 % 0 mm
10:10 -15.4 °C -20 °C 1043.6 hPa North 1.6 km/h 4.8 km/h 68 % 0 mm
10:40 -15.4 °C -20.6 °C 1043.6 hPa Calm   8 km/h 65 % 0 mm
11:11 -14.6 °C -20.6 °C 1042.9 hPa North 1.6 km/h 4.8 km/h 63 % 0 mm
11:26 -14.1 °C -20.6 °C 1042.9 hPa Calm   6.4 km/h 60 % 0 mm
11:41 -13.9 °C -20.6 °C 1042.5 hPa North 1.6 km/h 6.4 km/h 58 % 0 mm
11:56 -13.4 °C -20 °C 1042.5 hPa Calm   6.4 km/h 58 % 0 mm
12:11 -13.1 °C -20.6 °C 1042.2 hPa Calm   8 km/h 55 % 0 mm
12:26 -13.1 °C -20.6 °C 1041.9 hPa ENE 1.6 km/h 8 km/h 55 % 0 mm
12:41 -12.4 °C -20.6 °C 1041.5 hPa North 3.2 km/h 4.8 km/h 53 % 0 mm
12:56 -12.2 °C -20.6 °C 1041.2 hPa Calm   6.4 km/h 52 % 0 mm
13:11 -11.8 °C -20 °C 1040.9 hPa North 3.2 km/h 6.4 km/h 52 % 0 mm
13:26 -11.2 °C -19.4 °C 1040.9 hPa North 1.6 km/h 4.8 km/h 51 % 0 mm
13:41 -11.4 °C -20 °C 1040.5 hPa Calm   8 km/h 50 % 0 mm
13:56 -11.2 °C -20 °C 1040.5 hPa North 1.6 km/h 3.2 km/h 50 % 0 mm
14:12 -11.6 °C -20 °C 1040.2 hPa North 3.2 km/h 8 km/h 52 % 0 mm
14:27 -11.7 °C -19.4 °C 1040.2 hPa North 3.2 km/h 6.4 km/h 53 % 0 mm
14:42 -12 °C -20.6 °C 1039.8 hPa Calm   8 km/h 51 % 0 mm
14:57 -12 °C -20.6 °C 1039.8 hPa NNE 6.4 km/h 8 km/h 50 % 0 mm
15:12 -12.2 °C -21.7 °C 1040.2 hPa Calm   4.8 km/h 47 % 0 mm
15:27 -11.8 °C -20 °C 1040.2 hPa Calm   4.8 km/h 51 % 0 mm
15:42 -11.9 °C -20.6 °C 1040.2 hPa Calm   4.8 km/h 50 % 0 mm
15:57 -11.9 °C -20 °C 1040.2 hPa Calm   3.2 km/h 51 % 0 mm
16:12 -12 °C -20 °C 1040.2 hPa Calm   4.8 km/h 52 % 0 mm
16:27 -12.2 °C -20.6 °C 1040.2 hPa Calm   6.4 km/h 51 % 0 mm
16:42 -12.2 °C -20.6 °C 1040.2 hPa Calm   3.2 km/h 51 % 0 mm
16:57 -12.3 °C -20.6 °C 1040.2 hPa Calm   1.6 km/h 52 % 0 mm
17:12 -12.4 °C -20 °C 1039.8 hPa Calm   1.6 km/h 54 % 0 mm
17:27 -12.6 °C -20 °C 1039.8 hPa Calm     55 % 0 mm
17:43 -12.9 °C -20 °C 1039.8 hPa Calm     56 % 0 mm
17:58 -13.2 °C -20 °C 1039.8 hPa Calm     57 % 0 mm
18:13 -13.4 °C -20 °C 1039.8 hPa Calm     59 % 0 mm
18:43 -14 °C -19.4 °C 1039.5 hPa Calm     63 % 0 mm
18:58 -14.1 °C -19.4 °C 1039.5 hPa Calm     65 % 0 mm
19:13 -14.2 °C -19.4 °C 1039.5 hPa Calm     65 % 0 mm
19:28 -14.4 °C -19.4 °C 1039.5 hPa Calm     65 % 0 mm
19:43 -14.6 °C -19.4 °C 1039.5 hPa Calm     66 % 0 mm
19:58 -14.8 °C -19.4 °C 1039.5 hPa Calm     67 % 0 mm
20:13 -15 °C -19.4 °C 1039.5 hPa Calm     68 % 0 mm
20:28 -15.2 °C -20 °C 1039.5 hPa Calm     68 % 0 mm
20:43 -15.3 °C -19.4 °C 1039.2 hPa Calm     70 % 0 mm
20:59 -15.4 °C -19.4 °C 1039.2 hPa Calm     71 % 0 mm
21:14 -15.5 °C -19.4 °C 1038.8 hPa Calm     72 % 0 mm
21:44 -15.3 °C -18.9 °C 1039.2 hPa Calm   1.6 km/h 74 % 0 mm
21:59 -14.6 °C -18.3 °C 1039.2 hPa North 6.4 km/h 9.7 km/h 74 % 0 mm
22:14 -13.9 °C -18.3 °C 1039.2 hPa Calm   3.2 km/h 71 % 0 mm
22:29 -13.6 °C -18.3 °C 1039.5 hPa Calm   3.2 km/h 69 % 0 mm
22:44 -13.4 °C -18.3 °C 1039.2 hPa Calm   3.2 km/h 68 % 0 mm
22:59 -13.3 °C -18.3 °C 1038.8 hPa Calm   6.4 km/h 68 % 0 mm
23:14 -13.2 °C -17.8 °C 1038.8 hPa Calm   8 km/h 68 % 0 mm
23:29 -13.2 °C -17.8 °C 1038.8 hPa Calm   6.4 km/h 68 % 0 mm
23:44 -13.1 °C -17.8 °C 1038.5 hPa East 1.6 km/h 6.4 km/h 68 % 0 mm
23:59 -13 °C -17.8 °C 1038.5 hPa Calm   6.4 km/h 68 % 0 mm
Des Moines Weather and Climate
Compliments of Weather Underground - 3 mb

Script developed by  Jim McMurry - jmcmurry@mwt.net Adapted for the template by  Wim van der Kuil - Leuven-Template.eu

You find our weather info also at:

Weather Underground

Equipment we use:

Weather-station
Davis VP2 Plus

Weather-program
Davis Weatherlink.Com

Weather-server
iMac (Retina 4K, 21.5-inch, Late 2015)

Provider
Hostmonster.com

Davis VP2 Plus

Davis Weatherlink.Com

iMac (Retina 4K, 21.5-inch, Late 2015)

Hostmonster.com